Integrity — WDF4881 — position and weather

sailwx.info

Track history (hours):
 
Tides and Currents Weather Stations Pressure Air Temp Water Temp Dewpoint Dewpoint Depression Visibility Wind Speed Wind Dir Waves Ship Positions

Integrity

Owner: Canal Barge Company, Inc., Belle Chasse, LA. More information available from US FCC via Universal Licensing System and Coast Guard Vessel Documentation Center.

Last reported at 2015-Dec-25 11:33 UTC. Time now 2016-Feb-10 06:47 UTC.
Position N 29°34' W 090°33'.
Warning: this ship's position is 46 days out of date.

Length 19 m; draft 2.8 m.

Type: Towing. MMSI: 367456830.

Date/timePositionNaut miles runAvg speedWind from/ knotsBaromVisibWave heightAir tempDewpointWater temp
2015-Dec-25 11:33N 29°34' W 090°33'6 5.6
2015-Dec-25 10:33N 29°36' W 090°39'3 3.5
2015-Dec-25 09:33N 29°35' W 090°43'3 2.8
2015-Dec-25 08:33N 29°33' W 090°45'101 2.0
2015-Dec-23 05:33N 29°56' W 092°38'16 2.7
2015-Dec-22 23:33N 29°56' W 092°57'2 1.7
2015-Dec-22 22:33N 29°56' W 092°59'2 1.6
2015-Dec-22 21:33N 29°56' W 093°01'6 5.8
2015-Dec-22 20:33N 29°56' W 093°07'4 4.1
2015-Dec-22 19:34N 29°58' W 093°11'0 0.0
2015-Dec-22 18:33N 29°58' W 093°11'4 4.2
2015-Dec-22 17:34N 30°02' W 093°14'4 4.3
2015-Dec-22 16:34N 30°05' W 093°17'2 1.5
2015-Dec-22 15:33N 30°06' W 093°18'0 0.0
2015-Dec-22 14:34N 30°06' W 093°18'0 0.0
2015-Dec-22 13:34N 30°06' W 093°18'0 0.0
2015-Dec-22 12:33N 30°06' W 093°18'0 0.1
2015-Dec-22 11:33N 30°06' W 093°18'0 0.0
2015-Dec-22 10:33N 30°06' W 093°18'0 0.0
2015-Dec-22 09:33N 30°06' W 093°18'0 0.0
2015-Dec-22 08:33N 30°06' W 093°18'0 0.0
2015-Dec-22 07:33N 30°06' W 093°18'0 0.0
2015-Dec-22 06:34N 30°06' W 093°18'0 0.0
2015-Dec-22 05:34N 30°06' W 093°18'0 0.0
2015-Dec-22 04:33N 30°06' W 093°18'0 0.0
2015-Dec-22 03:33N 30°06' W 093°18'0 0.0
2015-Dec-22 02:33N 30°06' W 093°18'0 0.0
2015-Dec-22 01:34N 30°06' W 093°18'0 0.0
2015-Dec-22 00:34N 30°06' W 093°18'0 0.0
2015-Dec-21 23:33N 30°06' W 093°18'1 0.7
2015-Dec-21 22:33N 30°06' W 093°19'2 1.7
2015-Dec-21 21:34N 30°05' W 093°20'0 0.0
2015-Dec-21 20:34N 30°05' W 093°20'0 0.0
2015-Dec-21 19:34N 30°05' W 093°20'0 0.0
2015-Dec-21 18:33N 30°05' W 093°20'0 0.0
2015-Dec-21 17:33N 30°05' W 093°20'0 0.0
2015-Dec-21 16:34N 30°05' W 093°20'0 0.0
2015-Dec-21 15:33N 30°05' W 093°20'0 0.0
2015-Dec-21 14:34N 30°05' W 093°20'0 0.0
2015-Dec-21 13:34N 30°05' W 093°20'0 0.0
2015-Dec-21 12:34N 30°05' W 093°20'0 0.0
2015-Dec-21 11:34N 30°05' W 093°20'0 0.0
2015-Dec-21 10:34N 30°05' W 093°20'0 0.0
2015-Dec-21 09:33N 30°05' W 093°20'0 0.0
2015-Dec-21 08:33N 30°05' W 093°20'0 0.0
2015-Dec-21 07:33N 30°05' W 093°20'0 0.0
2015-Dec-21 06:34N 30°05' W 093°20'0 0.0
2015-Dec-21 05:34N 30°05' W 093°20'0 0.0
2015-Dec-21 04:33N 30°05' W 093°20'0 0.0
2015-Dec-21 03:34N 30°05' W 093°20'0 0.0
2015-Dec-21 02:33N 30°05' W 093°20'0 0.0
2015-Dec-21 01:34N 30°05' W 093°20'0 0.0
2015-Dec-21 00:33N 30°05' W 093°20'0 0.0
2015-Dec-20 23:33N 30°05' W 093°20'0 0.0
2015-Dec-20 22:33N 30°05' W 093°20'0 0.0
2015-Dec-20 21:34N 30°05' W 093°20'0 0.0
2015-Dec-20 20:34N 30°05' W 093°20'0 0.0
2015-Dec-20 19:34N 30°05' W 093°20'0 0.0
2015-Dec-20 18:34N 30°05' W 093°20'0 0.0
2015-Dec-20 17:33N 30°05' W 093°20'0 0.0
2015-Dec-20 16:33N 30°05' W 093°20'0 0.0
2015-Dec-20 15:34N 30°05' W 093°20'0 0.0
2015-Dec-20 14:33N 30°05' W 093°20'0 0.0
2015-Dec-20 13:34N 30°05' W 093°20'0 0.0
2015-Dec-20 12:34N 30°05' W 093°20'0 0.0
2015-Dec-20 11:34N 30°05' W 093°20'0 0.0
2015-Dec-20 10:33N 30°05' W 093°20'0 0.0
2015-Dec-20 09:33N 30°05' W 093°20'0 0.0
2015-Dec-20 08:33N 30°05' W 093°20'0 0.0
2015-Dec-20 07:34N 30°05' W 093°20'0 0.0
2015-Dec-20 06:33N 30°05' W 093°20'0 0.0
2015-Dec-20 05:34N 30°05' W 093°20'0 0.0
2015-Dec-20 04:34N 30°05' W 093°20'0 0.0
2015-Dec-20 03:33N 30°05' W 093°20'0 0.0
2015-Dec-20 02:34N 30°05' W 093°20'0 0.0
2015-Dec-20 01:33N 30°05' W 093°20'0 0.0
2015-Dec-20 00:34N 30°05' W 093°20'0 0.0
2015-Dec-19 23:33N 30°05' W 093°20'1 0.5
2015-Dec-19 22:34N 30°05' W 093°20'5 4.7
2015-Dec-19 21:34N 30°10' W 093°19'5 5.4
2015-Dec-19 20:33N 30°14' W 093°15'0 0.2
2015-Dec-19 19:34N 30°14' W 093°15'0 0.0
2015-Dec-19 18:34N 30°14' W 093°15'0 0.0
2015-Dec-19 17:34N 30°14' W 093°15'0 0.0
2015-Dec-19 16:34N 30°14' W 093°15'0 0.0
2015-Dec-19 15:33N 30°14' W 093°15'0 0.0
2015-Dec-19 14:34N 30°14' W 093°15'0 0.0
2015-Dec-19 13:33N 30°14' W 093°15'0 0.0
2015-Dec-19 12:33N 30°14' W 093°15'0 0.0
2015-Dec-19 11:33N 30°14' W 093°15'0 0.0
2015-Dec-19 10:34N 30°14' W 093°15'0 0.0
2015-Dec-19 09:33N 30°14' W 093°15'0 0.0
2015-Dec-19 08:34N 30°14' W 093°15'0 0.0
2015-Dec-19 07:33N 30°14' W 093°15'0 0.0
2015-Dec-19 06:33N 30°14' W 093°15'0 0.0
2015-Dec-19 05:33N 30°14' W 093°15'0 0.0
2015-Dec-19 04:33N 30°14' W 093°15'0 0.0
2015-Dec-19 03:33N 30°14' W 093°15'0 0.0
2015-Dec-19 02:33N 30°14' W 093°15'0 0.0
2015-Dec-19 01:34N 30°14' W 093°15'0 0.0
2015-Dec-19 00:33N 30°14' W 093°15'0 0.0
2015-Dec-18 23:33N 30°14' W 093°15'0 0.0
2015-Dec-18 22:34N 30°14' W 093°15'0 0.0
2015-Dec-18 21:34N 30°14' W 093°15'0 0.0
2015-Dec-18 20:34N 30°14' W 093°15'1 1.3
2015-Dec-18 19:34N 30°13' W 093°16'4 3.8
2015-Dec-18 18:34N 30°10' W 093°19'4 3.9
2015-Dec-18 17:33N 30°06' W 093°20'1 1.4
2015-Dec-18 16:34N 30°05' W 093°20'0 0.0
2015-Dec-18 15:33N 30°05' W 093°20'0 0.0
2015-Dec-18 14:34N 30°05' W 093°20'0 0.0
2015-Dec-18 13:34N 30°05' W 093°20'0 0.0
2015-Dec-18 12:34N 30°05' W 093°20'0 0.0
2015-Dec-18 11:34N 30°05' W 093°20'0 0.0
2015-Dec-18 10:33N 30°05' W 093°20'0 0.0
2015-Dec-18 09:34N 30°05' W 093°20'0 0.0
2015-Dec-18 08:33N 30°05' W 093°20'0 0.0
2015-Dec-18 07:33N 30°05' W 093°20'0 0.0
2015-Dec-18 06:33N 30°05' W 093°20'0 0.0
2015-Dec-18 05:34N 30°05' W 093°20'0 0.3
2015-Dec-18 04:33N 30°05' W 093°20'0 0.0
2015-Dec-18 03:34N 30°05' W 093°20'0 0.0
2015-Dec-18 02:33N 30°05' W 093°20'0 0.0
2015-Dec-18 01:33N 30°05' W 093°20'0 0.3
2015-Dec-18 00:34N 30°05' W 093°20'1 1.3
2015-Dec-17 23:33N 30°06' W 093°19'2 2.3
2015-Dec-17 22:33N 30°04' W 093°21'4 4.0
2015-Dec-17 21:33N 30°04' W 093°25'5 5.5
2015-Dec-17 20:33N 30°04' W 093°32'5 5.4
2015-Dec-17 19:33N 30°04' W 093°38'5 5.1
2015-Dec-17 18:34N 30°03' W 093°44'  
Track history (hours):
 
Tides and Currents Weather Stations Pressure Air Temp Water Temp Dewpoint Dewpoint Depression Visibility Wind Speed Wind Dir Waves Ship Positions

Integrity

Owner: Canal Barge Company, Inc., Belle Chasse, LA. More information available from US FCC via Universal Licensing System and Coast Guard Vessel Documentation Center.

Last reported at 2015-Dec-25 11:33 UTC. Time now 2016-Feb-10 06:47 UTC.
Position N 29°34' W 090°33'.
Warning: this ship's position is 46 days out of date.

Length 19 m; draft 2.8 m.

Type: Towing. MMSI: 367456830.

Date/timePositionNaut miles runAvg speedWind from/ knotsBaromVisibWave heightAir tempDewpointWater temp
2015-Dec-25 11:33N 29°34' W 090°33'6 5.6
2015-Dec-25 10:33N 29°36' W 090°39'3 3.5
2015-Dec-25 09:33N 29°35' W 090°43'3 2.8
2015-Dec-25 08:33N 29°33' W 090°45'101 2.0
2015-Dec-23 05:33N 29°56' W 092°38'16 2.7
2015-Dec-22 23:33N 29°56' W 092°57'2 1.7
2015-Dec-22 22:33N 29°56' W 092°59'2 1.6
2015-Dec-22 21:33N 29°56' W 093°01'6 5.8
2015-Dec-22 20:33N 29°56' W 093°07'4 4.1
2015-Dec-22 19:34N 29°58' W 093°11'0 0.0
2015-Dec-22 18:33N 29°58' W 093°11'4 4.2
2015-Dec-22 17:34N 30°02' W 093°14'4 4.3
2015-Dec-22 16:34N 30°05' W 093°17'2 1.5
2015-Dec-22 15:33N 30°06' W 093°18'0 0.0
2015-Dec-22 14:34N 30°06' W 093°18'0 0.0
2015-Dec-22 13:34N 30°06' W 093°18'0 0.0
2015-Dec-22 12:33N 30°06' W 093°18'0 0.1
2015-Dec-22 11:33N 30°06' W 093°18'0 0.0
2015-Dec-22 10:33N 30°06' W 093°18'0 0.0
2015-Dec-22 09:33N 30°06' W 093°18'0 0.0
2015-Dec-22 08:33N 30°06' W 093°18'0 0.0
2015-Dec-22 07:33N 30°06' W 093°18'0 0.0
2015-Dec-22 06:34N 30°06' W 093°18'0 0.0
2015-Dec-22 05:34N 30°06' W 093°18'0 0.0
2015-Dec-22 04:33N 30°06' W 093°18'0 0.0
2015-Dec-22 03:33N 30°06' W 093°18'0 0.0
2015-Dec-22 02:33N 30°06' W 093°18'0 0.0
2015-Dec-22 01:34N 30°06' W 093°18'0 0.0
2015-Dec-22 00:34N 30°06' W 093°18'0 0.0
2015-Dec-21 23:33N 30°06' W 093°18'1 0.7
2015-Dec-21 22:33N 30°06' W 093°19'2 1.7
2015-Dec-21 21:34N 30°05' W 093°20'0 0.0
2015-Dec-21 20:34N 30°05' W 093°20'0 0.0
2015-Dec-21 19:34N 30°05' W 093°20'0 0.0
2015-Dec-21 18:33N 30°05' W 093°20'0 0.0
2015-Dec-21 17:33N 30°05' W 093°20'0 0.0
2015-Dec-21 16:34N 30°05' W 093°20'0 0.0
2015-Dec-21 15:33N 30°05' W 093°20'0 0.0
2015-Dec-21 14:34N 30°05' W 093°20'0 0.0
2015-Dec-21 13:34N 30°05' W 093°20'0 0.0
2015-Dec-21 12:34N 30°05' W 093°20'0 0.0
2015-Dec-21 11:34N 30°05' W 093°20'0 0.0
2015-Dec-21 10:34N 30°05' W 093°20'0 0.0
2015-Dec-21 09:33N 30°05' W 093°20'0 0.0
2015-Dec-21 08:33N 30°05' W 093°20'0 0.0
2015-Dec-21 07:33N 30°05' W 093°20'0 0.0
2015-Dec-21 06:34N 30°05' W 093°20'0 0.0
2015-Dec-21 05:34N 30°05' W 093°20'0 0.0
2015-Dec-21 04:33N 30°05' W 093°20'0 0.0
2015-Dec-21 03:34N 30°05' W 093°20'0 0.0
2015-Dec-21 02:33N 30°05' W 093°20'0 0.0
2015-Dec-21 01:34N 30°05' W 093°20'0 0.0
2015-Dec-21 00:33N 30°05' W 093°20'0 0.0
2015-Dec-20 23:33N 30°05' W 093°20'0 0.0
2015-Dec-20 22:33N 30°05' W 093°20'0 0.0
2015-Dec-20 21:34N 30°05' W 093°20'0 0.0
2015-Dec-20 20:34N 30°05' W 093°20'0 0.0
2015-Dec-20 19:34N 30°05' W 093°20'0 0.0
2015-Dec-20 18:34N 30°05' W 093°20'0 0.0
2015-Dec-20 17:33N 30°05' W 093°20'0 0.0
2015-Dec-20 16:33N 30°05' W 093°20'0 0.0
2015-Dec-20 15:34N 30°05' W 093°20'0 0.0
2015-Dec-20 14:33N 30°05' W 093°20'0 0.0
2015-Dec-20 13:34N 30°05' W 093°20'0 0.0
2015-Dec-20 12:34N 30°05' W 093°20'0 0.0
2015-Dec-20 11:34N 30°05' W 093°20'0 0.0
2015-Dec-20 10:33N 30°05' W 093°20'0 0.0
2015-Dec-20 09:33N 30°05' W 093°20'0 0.0
2015-Dec-20 08:33N 30°05' W 093°20'0 0.0
2015-Dec-20 07:34N 30°05' W 093°20'0 0.0
2015-Dec-20 06:33N 30°05' W 093°20'0 0.0
2015-Dec-20 05:34N 30°05' W 093°20'0 0.0
2015-Dec-20 04:34N 30°05' W 093°20'0 0.0
2015-Dec-20 03:33N 30°05' W 093°20'0 0.0
2015-Dec-20 02:34N 30°05' W 093°20'0 0.0
2015-Dec-20 01:33N 30°05' W 093°20'0 0.0
2015-Dec-20 00:34N 30°05' W 093°20'0 0.0
2015-Dec-19 23:33N 30°05' W 093°20'1 0.5
2015-Dec-19 22:34N 30°05' W 093°20'5 4.7
2015-Dec-19 21:34N 30°10' W 093°19'5 5.4
2015-Dec-19 20:33N 30°14' W 093°15'0 0.2
2015-Dec-19 19:34N 30°14' W 093°15'0 0.0
2015-Dec-19 18:34N 30°14' W 093°15'0 0.0
2015-Dec-19 17:34N 30°14' W 093°15'0 0.0
2015-Dec-19 16:34N 30°14' W 093°15'0 0.0
2015-Dec-19 15:33N 30°14' W 093°15'0 0.0
2015-Dec-19 14:34N 30°14' W 093°15'0 0.0
2015-Dec-19 13:33N 30°14' W 093°15'0 0.0
2015-Dec-19 12:33N 30°14' W 093°15'0 0.0
2015-Dec-19 11:33N 30°14' W 093°15'0 0.0
2015-Dec-19 10:34N 30°14' W 093°15'0 0.0
2015-Dec-19 09:33N 30°14' W 093°15'0 0.0
2015-Dec-19 08:34N 30°14' W 093°15'0 0.0
2015-Dec-19 07:33N 30°14' W 093°15'0 0.0
2015-Dec-19 06:33N 30°14' W 093°15'0 0.0
2015-Dec-19 05:33N 30°14' W 093°15'0 0.0
2015-Dec-19 04:33N 30°14' W 093°15'0 0.0
2015-Dec-19 03:33N 30°14' W 093°15'0 0.0
2015-Dec-19 02:33N 30°14' W 093°15'0 0.0
2015-Dec-19 01:34N 30°14' W 093°15'0 0.0
2015-Dec-19 00:33N 30°14' W 093°15'0 0.0
2015-Dec-18 23:33N 30°14' W 093°15'0 0.0
2015-Dec-18 22:34N 30°14' W 093°15'0 0.0
2015-Dec-18 21:34N 30°14' W 093°15'0 0.0
2015-Dec-18 20:34N 30°14' W 093°15'1 1.3
2015-Dec-18 19:34N 30°13' W 093°16'4 3.8
2015-Dec-18 18:34N 30°10' W 093°19'4 3.9
2015-Dec-18 17:33N 30°06' W 093°20'1 1.4
2015-Dec-18 16:34N 30°05' W 093°20'0 0.0
2015-Dec-18 15:33N 30°05' W 093°20'0 0.0
2015-Dec-18 14:34N 30°05' W 093°20'0 0.0
2015-Dec-18 13:34N 30°05' W 093°20'0 0.0
2015-Dec-18 12:34N 30°05' W 093°20'0 0.0
2015-Dec-18 11:34N 30°05' W 093°20'0 0.0
2015-Dec-18 10:33N 30°05' W 093°20'0 0.0
2015-Dec-18 09:34N 30°05' W 093°20'0 0.0
2015-Dec-18 08:33N 30°05' W 093°20'0 0.0
2015-Dec-18 07:33N 30°05' W 093°20'0 0.0
2015-Dec-18 06:33N 30°05' W 093°20'0 0.0
2015-Dec-18 05:34N 30°05' W 093°20'0 0.3
2015-Dec-18 04:33N 30°05' W 093°20'0 0.0
2015-Dec-18 03:34N 30°05' W 093°20'0 0.0
2015-Dec-18 02:33N 30°05' W 093°20'0 0.0
2015-Dec-18 01:33N 30°05' W 093°20'0 0.3
2015-Dec-18 00:34N 30°05' W 093°20'1 1.3
2015-Dec-17 23:33N 30°06' W 093°19'2 2.3
2015-Dec-17 22:33N 30°04' W 093°21'4 4.0
2015-Dec-17 21:33N 30°04' W 093°25'5 5.5
2015-Dec-17 20:33N 30°04' W 093°32'5 5.4
2015-Dec-17 19:33N 30°04' W 093°38'5 5.1
2015-Dec-17 18:34N 30°03' W 093°44'  

Dump ship's entire track history